TimeCDT,TemperatureF,Dew PointF,Humidity,Sea Level PressureIn,VisibilityMPH,Wind Direction,Wind SpeedMPH,Gust SpeedMPH,PrecipitationIn,Events,Conditions,WindDirDegrees,DateUTC
12:15 AM,17.6,12.2,79,30.30,10.0,Calm,Calm,-,N/A,,Clear,0,2013-03-28 05:15:00
12:34 AM,17.6,12.2,79,30.30,10.0,Calm,Calm,-,N/A,,Clear,0,2013-03-28 05:34:00
12:50 AM,12.2,8.6,85,30.30,10.0,Calm,Calm,-,N/A,,Clear,0,2013-03-28 05:50:00
1:15 AM,15.8,10.4,79,30.30,10.0,Calm,Calm,-,N/A,,Clear,0,2013-03-28 06:15:00
1:34 AM,12.2,8.6,85,30.30,10.0,Calm,Calm,-,N/A,,Clear,0,2013-03-28 06:34:00
1:54 AM,10.4,6.8,85,30.30,10.0,Calm,Calm,-,N/A,,Clear,0,2013-03-28 06:54:00
2:15 AM,12.2,8.6,85,30.30,10.0,Calm,Calm,-,N/A,,Clear,0,2013-03-28 07:15:00
2:34 AM,14.0,8.6,79,30.30,10.0,Calm,Calm,-,N/A,,Clear,0,2013-03-28 07:34:00
2:54 AM,14.0,8.6,79,30.30,10.0,Calm,Calm,-,N/A,,Clear,0,2013-03-28 07:54:00
3:14 AM,12.2,8.6,85,30.30,10.0,Calm,Calm,-,N/A,,Clear,0,2013-03-28 08:14:00
3:34 AM,12.2,8.6,85,30.29,10.0,Calm,Calm,-,N/A,,Mostly Cloudy,0,2013-03-28 08:34:00
3:54 AM,14.0,8.6,79,30.29,10.0,Calm,Calm,-,N/A,,Mostly Cloudy,0,2013-03-28 08:54:00
4:14 AM,10.4,5.0,79,30.29,10.0,Calm,Calm,-,N/A,,Scattered Clouds,0,2013-03-28 09:14:00
4:34 AM,12.2,6.8,79,30.29,10.0,Calm,Calm,-,N/A,,Scattered Clouds,0,2013-03-28 09:34:00
4:54 AM,10.4,6.8,85,30.29,10.0,Calm,Calm,-,N/A,,Mostly Cloudy,0,2013-03-28 09:54:00
5:14 AM,12.2,6.8,79,30.29,10.0,Calm,Calm,-,N/A,,Overcast,0,2013-03-28 10:14:00
5:34 AM,10.4,6.8,85,30.29,10.0,Calm,Calm,-,N/A,,Overcast,0,2013-03-28 10:34:00
5:54 AM,10.4,6.8,85,30.29,10.0,Calm,Calm,-,N/A,,Mostly Cloudy,0,2013-03-28 10:54:00
6:14 AM,12.2,8.6,85,30.28,10.0,Calm,Calm,-,N/A,,Scattered Clouds,0,2013-03-28 11:14:00
6:34 AM,12.2,6.8,79,30.28,10.0,Calm,Calm,-,N/A,,Clear,0,2013-03-28 11:34:00
6:54 AM,15.8,10.4,79,30.28,10.0,Calm,Calm,-,N/A,,Scattered Clouds,0,2013-03-28 11:54:00
7:14 AM,17.6,10.4,73,30.28,10.0,Calm,Calm,-,N/A,,Mostly Cloudy,0,2013-03-28 12:14:00
7:34 AM,14.0,8.6,79,30.28,10.0,Calm,Calm,-,N/A,,Overcast,0,2013-03-28 12:34:00
7:54 AM,14.0,8.6,79,30.28,10.0,Calm,Calm,-,N/A,,Scattered Clouds,0,2013-03-28 12:54:00
8:14 AM,17.6,10.4,73,30.28,10.0,ESE,3.5,-,N/A,,Scattered Clouds,110,2013-03-28 13:14:00
8:34 AM,19.4,12.2,74,30.28,10.0,Calm,Calm,-,N/A,,Mostly Cloudy,0,2013-03-28 13:34:00
8:54 AM,24.8,15.8,69,30.28,10.0,ESE,4.6,-,N/A,,Scattered Clouds,110,2013-03-28 13:54:00
9:14 AM,26.6,15.8,64,30.28,10.0,ESE,3.5,-,N/A,,Scattered Clouds,120,2013-03-28 14:14:00
9:34 AM,28.4,17.6,64,30.28,10.0,Calm,Calm,-,N/A,,Scattered Clouds,0,2013-03-28 14:34:00
9:54 AM,26.6,17.6,69,30.28,10.0,East,3.5,-,N/A,,Mostly Cloudy,80,2013-03-28 14:54:00
10:14 AM,26.6,17.6,69,30.28,10.0,Calm,Calm,-,N/A,,Mostly Cloudy,0,2013-03-28 15:14:00
10:34 AM,28.4,19.4,69,30.28,10.0,Calm,Calm,-,N/A,,Mostly Cloudy,0,2013-03-28 15:34:00
10:54 AM,30.2,19.4,64,30.28,10.0,Calm,Calm,-,N/A,,Mostly Cloudy,0,2013-03-28 15:54:00
11:14 AM,32.0,21.2,64,30.28,10.0,Calm,Calm,-,N/A,,Mostly Cloudy,0,2013-03-28 16:14:00
11:34 AM,30.2,21.2,69,30.28,10.0,Calm,Calm,-,N/A,,Mostly Cloudy,0,2013-03-28 16:34:00
11:54 AM,32.0,23.0,69,30.28,10.0,Calm,Calm,-,N/A,,Mostly Cloudy,0,2013-03-28 16:54:00
12:14 PM,33.8,24.8,70,30.28,10.0,Calm,Calm,-,N/A,,Scattered Clouds,0,2013-03-28 17:14:00
12:34 PM,33.8,24.8,70,30.28,10.0,Calm,Calm,-,N/A,,Scattered Clouds,0,2013-03-28 17:34:00
12:54 PM,35.6,23.0,60,30.28,10.0,Calm,Calm,-,N/A,,Scattered Clouds,0,2013-03-28 17:54:00
1:14 PM,37.4,21.2,52,30.27,10.0,Calm,Calm,-,N/A,,Scattered Clouds,0,2013-03-28 18:14:00
1:34 PM,37.4,21.2,52,30.27,10.0,SSW,4.6,-,N/A,,Scattered Clouds,200,2013-03-28 18:34:00
1:54 PM,39.2,21.2,49,30.26,10.0,South,4.6,-,N/A,,Scattered Clouds,190,2013-03-28 18:54:00
2:14 PM,39.2,23.0,52,30.26,10.0,SSW,3.5,-,N/A,,Scattered Clouds,200,2013-03-28 19:14:00
2:34 PM,39.2,21.2,49,30.26,10.0,Calm,Calm,-,N/A,,Scattered Clouds,0,2013-03-28 19:34:00
2:54 PM,39.2,21.2,49,30.25,10.0,Calm,Calm,-,N/A,,Scattered Clouds,0,2013-03-28 19:54:00
3:14 PM,39.2,21.2,49,30.25,10.0,Calm,Calm,-,N/A,,Mostly Cloudy,0,2013-03-28 20:14:00
3:34 PM,39.2,19.4,45,30.24,10.0,South,3.5,-,N/A,,Mostly Cloudy,190,2013-03-28 20:34:00
3:54 PM,39.2,21.2,49,30.24,10.0,South,3.5,-,N/A,,Mostly Cloudy,190,2013-03-28 20:54:00
4:14 PM,39.2,21.2,49,30.24,10.0,Calm,Calm,-,N/A,,Mostly Cloudy,0,2013-03-28 21:14:00
4:34 PM,41.0,24.8,53,30.23,10.0,SSW,3.5,-,N/A,,Mostly Cloudy,210,2013-03-28 21:34:00
4:54 PM,41.0,21.2,45,30.23,10.0,SW,3.5,-,N/A,,Mostly Cloudy,230,2013-03-28 21:54:00
5:14 PM,41.0,19.4,42,30.23,10.0,Calm,Calm,-,N/A,,Mostly Cloudy,0,2013-03-28 22:14:00
5:34 PM,42.8,19.4,39,30.23,10.0,WSW,4.6,-,N/A,,Overcast,240,2013-03-28 22:34:00
5:54 PM,42.8,19.4,39,30.23,10.0,Calm,Calm,-,N/A,,Mostly Cloudy,0,2013-03-28 22:54:00
6:14 PM,39.2,24.8,56,30.23,10.0,Calm,Calm,-,N/A,,Mostly Cloudy,0,2013-03-28 23:14:00
6:34 PM,39.2,24.8,56,30.23,10.0,Calm,Calm,-,N/A,,Mostly Cloudy,0,2013-03-28 23:34:00
6:54 PM,35.6,28.4,75,30.23,10.0,Calm,Calm,-,N/A,,Mostly Cloudy,0,2013-03-28 23:54:00
7:14 PM,37.4,26.6,65,30.23,10.0,Calm,Calm,-,N/A,,Overcast,0,2013-03-29 00:14:00
7:34 PM,37.4,24.8,60,30.23,10.0,Calm,Calm,-,N/A,,Overcast,0,2013-03-29 00:34:00
7:54 PM,37.4,24.8,60,30.23,10.0,Calm,Calm,-,N/A,,Overcast,0,2013-03-29 00:54:00
8:14 PM,37.4,24.8,60,30.22,10.0,Calm,Calm,-,N/A,,Overcast,0,2013-03-29 01:14:00
8:34 PM,35.6,24.8,65,30.22,10.0,Calm,Calm,-,N/A,,Scattered Clouds,0,2013-03-29 01:34:00
8:54 PM,33.8,26.6,75,30.23,10.0,Calm,Calm,-,N/A,,Scattered Clouds,0,2013-03-29 01:54:00
9:14 PM,33.8,24.8,70,30.23,10.0,Calm,Calm,-,N/A,,Scattered Clouds,0,2013-03-29 02:14:00
9:34 PM,32.0,23.0,69,30.23,10.0,Calm,Calm,-,N/A,,Clear,0,2013-03-29 02:34:00
9:54 PM,32.0,24.8,75,30.23,10.0,Calm,Calm,-,N/A,,Clear,0,2013-03-29 02:54:00
10:14 PM,30.2,24.8,80,30.23,10.0,Calm,Calm,-,N/A,,Clear,0,2013-03-29 03:14:00
10:34 PM,32.0,24.8,75,30.23,10.0,Calm,Calm,-,N/A,,Scattered Clouds,0,2013-03-29 03:34:00
10:54 PM,30.2,24.8,80,30.23,10.0,Calm,Calm,-,N/A,,Scattered Clouds,0,2013-03-29 03:54:00
11:14 PM,30.2,23.0,75,30.23,10.0,Calm,Calm,-,N/A,,Scattered Clouds,0,2013-03-29 04:14:00
11:34 PM,32.0,23.0,69,30.23,10.0,Calm,Calm,-,N/A,,Scattered Clouds,0,2013-03-29 04:34:00
11:54 PM,28.4,21.2,74,30.23,10.0,Calm,Calm,-,N/A,,Clear,0,2013-03-29 04:54:00